PDT,Max TemperatureF,Mean TemperatureF,Min TemperatureF,Max Dew PointF,MeanDew PointF,Min DewpointF,Max Humidity, Mean Humidity, Min Humidity, Max Sea Level PressureIn, Mean Sea Level PressureIn, Min Sea Level PressureIn, Max VisibilityMiles, Mean VisibilityMiles, Min VisibilityMiles, Max Wind SpeedMPH, Mean Wind SpeedMPH, Max Gust SpeedMPH,PrecipitationIn, CloudCover, Events, WindDirDegrees
2011-9-1,88,68,47,50,46,37,93,55,17,29.87,29.83,29.78,10,8,0,17,5,22,0.00,2,Fog,237
2011-9-2,98,73,47,50,44,31,80,45,10,29.90,29.85,29.79,10,10,10,22,5,28,0.00,0,,210
2011-9-3,95,72,49,49,39,17,77,42,7,29.91,29.86,29.81,10,10,10,20,5,23,0.00,0,,221
2011-9-4,98,71,44,48,43,38,100,57,13,29.93,29.88,29.79,10,7,0,17,5,22,0.00,1,Fog,219
2011-9-5,100,75,50,52,46,36,89,50,11,29.93,29.87,29.77,10,10,7,14,5,43,0.00,0,,299
2011-9-6,104,78,51,50,41,25,77,42,6,29.98,29.92,29.85,10,10,10,15,4,16,0.00,0,,3
2011-9-7,105,80,54,42,39,33,61,36,10,29.99,29.95,29.88,10,10,10,17,5,39,0.00,0,,316
2011-9-8,99,75,51,45,38,28,59,35,11,30.06,29.97,29.88,10,10,10,22,5,29,0.00,0,,277
2011-9-9,102,76,50,50,43,35,77,44,11,29.94,29.80,29.66,10,10,10,12,2,14,0.00,0,,283
2011-9-10,88,75,62,58,53,50,78,54,29,29.87,29.77,29.71,10,10,10,24,9,31,T,0,Rain,179
2011-9-11,78,69,59,60,56,53,87,69,50,30.01,29.95,29.83,10,10,10,17,8,20,0.01,2,,202
2011-9-12,92,72,51,57,54,49,93,61,29,30.09,30.02,29.94,10,10,9,20,4,,0.00,0,,308
2011-9-13,95,75,54,54,51,47,77,48,19,30.05,29.99,29.90,10,10,10,15,4,,0.00,0,,261
2011-9-14,92,73,54,54,52,46,83,55,26,29.96,29.90,29.81,10,10,9,16,5,22,0.00,0,,255
2011-9-15,80,67,54,52,51,50,93,66,39,29.94,29.89,29.81,10,10,8,24,9,30,0.00,3,,276
2011-9-16,73,62,51,53,50,48,89,67,44,29.99,29.93,29.90,10,10,9,18,9,23,0.00,3,,253
2011-9-17,85,68,51,51,48,41,96,59,22,30.07,30.01,29.94,10,10,8,13,4,,0.00,3,,324
2011-9-18,95,71,46,51,46,41,82,51,19,30.08,30.02,29.93,10,10,10,12,3,17,0.00,0,,120
2011-9-19,100,76,52,52,47,39,72,43,13,30.02,29.95,29.85,10,10,3,15,4,,0.00,0,,257
2011-9-20,102,78,54,47,44,36,60,36,11,29.96,29.89,29.79,10,10,10,17,4,22,0.00,0,,299
2011-9-21,101,76,51,49,44,37,66,39,11,29.91,29.87,29.80,10,10,10,17,4,23,0.00,0,,264
2011-9-22,102,77,52,52,48,40,77,46,14,29.98,29.92,29.84,10,10,10,20,4,25,0.00,0,,189
2011-9-23,97,77,56,58,49,45,64,41,17,29.99,29.94,29.86,10,10,10,17,5,22,T,0,Rain,224
2011-9-24,81,70,59,56,54,48,80,57,33,29.99,29.92,29.86,10,10,10,26,12,32,0.00,1,,206
2011-9-25,81,69,57,55,51,41,86,57,27,30.05,29.99,29.92,10,10,10,20,8,23,0.00,4,,321
2011-9-26,87,69,51,55,52,47,93,62,30,30.06,29.99,29.90,10,10,10,17,5,28,0.00,1,,359
2011-9-27,97,74,50,55,50,45,83,52,20,30.03,29.96,29.86,10,10,10,15,5,21,0.00,0,,85
2011-9-28,101,78,54,55,50,32,77,44,10,29.99,29.93,29.84,10,10,10,13,4,,0.00,0,,352
2011-9-29,84,70,55,55,52,47,80,57,34,29.94,29.91,29.86,10,10,10,22,7,26,0.00,0,,192
2011-9-30,75,63,51,55,53,51,93,70,46,29.99,29.95,29.91,10,10,9,17,8,22,0.00,3,,205